createdAt,value
2022-12-08T00:02:45.391Z,7.72
2022-12-08T00:08:06.142Z,3.40
2022-12-08T00:13:07.727Z,5.03
2022-12-08T00:18:09.198Z,4.68
2022-12-08T00:23:10.667Z,9.82
2022-12-08T00:28:12.180Z,8.80
2022-12-08T00:33:13.776Z,5.75
2022-12-08T00:38:15.375Z,6.45
2022-12-08T00:43:16.825Z,6.18
2022-12-08T00:48:18.362Z,8.00
2022-12-08T00:53:19.866Z,3.40
2022-12-08T00:58:21.389Z,3.60
2022-12-08T01:03:23.004Z,5.57
2022-12-08T01:08:24.664Z,9.57
2022-12-08T01:13:26.276Z,6.07
2022-12-08T01:18:28.729Z,4.75
2022-12-08T01:23:30.226Z,7.68
2022-12-08T01:28:32.343Z,6.03
2022-12-08T01:33:33.855Z,4.65
2022-12-08T01:38:35.446Z,7.85
2022-12-08T01:44:08.886Z,9.90
2022-12-08T01:49:29.802Z,6.05
2022-12-08T01:54:39.775Z,6.22
2022-12-08T02:00:01.237Z,8.10
2022-12-08T02:05:03.569Z,6.05
2022-12-08T02:10:06.122Z,7.55
2022-12-08T02:15:08.524Z,4.18
2022-12-08T02:20:16.376Z,2.05
2022-12-08T02:30:37.600Z,2.95
2022-12-08T02:35:56.912Z,5.10
2022-12-08T02:41:16.501Z,3.83
2022-12-08T02:46:27.288Z,5.35
2022-12-08T02:51:28.786Z,5.18
2022-12-08T02:56:51.752Z,2.67
2022-12-08T03:02:16.552Z,2.90
2022-12-08T03:07:34.111Z,3.70
2022-12-08T03:12:50.563Z,6.57
2022-12-08T03:17:56.931Z,5.40
2022-12-08T03:23:00.606Z,5.43
2022-12-08T03:28:02.463Z,8.05
2022-12-08T03:33:11.899Z,5.95
2022-12-08T03:38:16.711Z,7.65
2022-12-08T03:43:18.184Z,4.93
2022-12-08T03:48:19.681Z,6.28
2022-12-08T03:53:21.210Z,9.95
2022-12-08T03:58:22.669Z,4.38
2022-12-08T04:03:24.246Z,3.55
2022-12-08T04:08:25.886Z,4.13
2022-12-08T04:13:27.743Z,5.05
2022-12-08T04:18:29.342Z,4.57
2022-12-08T04:23:30.798Z,8.02
2022-12-08T04:28:32.854Z,6.00
2022-12-08T04:33:35.231Z,5.57
2022-12-08T04:38:36.754Z,6.97
2022-12-08T04:43:38.236Z,5.53
2022-12-08T04:48:40.362Z,5.30
2022-12-08T04:53:46.265Z,7.20
2022-12-08T04:58:48.352Z,3.85
2022-12-08T05:03:49.824Z,5.00
2022-12-08T05:08:51.532Z,8.65
2022-12-08T05:13:53.064Z,8.82
2022-12-08T05:18:54.525Z,5.95
2022-12-08T05:23:55.981Z,3.83
2022-12-08T05:28:57.471Z,4.65
2022-12-08T05:34:02.982Z,3.85
2022-12-08T05:39:05.051Z,5.70
2022-12-08T05:44:06.723Z,5.45
2022-12-08T05:49:08.243Z,6.32
2022-12-08T05:54:09.727Z,3.70
2022-12-08T05:59:11.267Z,4.53
2022-12-08T06:04:12.847Z,5.78
2022-12-08T06:09:14.308Z,8.57
2022-12-08T06:14:15.927Z,5.10
2022-12-08T06:19:17.493Z,3.97
2022-12-08T06:24:18.999Z,7.60
2022-12-08T06:29:20.516Z,6.20
2022-12-08T06:34:22.013Z,8.15
2022-12-08T06:39:23.527Z,8.93
2022-12-08T06:44:25.014Z,7.90
2022-12-08T06:49:26.568Z,4.97
2022-12-08T06:54:28.130Z,10.27
2022-12-08T06:59:29.614Z,4.82
2022-12-08T07:04:31.325Z,6.13
2022-12-08T07:09:32.871Z,5.97
2022-12-08T07:14:34.375Z,8.40
2022-12-08T07:19:35.890Z,6.78
2022-12-08T07:24:37.397Z,6.88
2022-12-08T07:29:38.916Z,4.30
2022-12-08T07:34:40.415Z,10.55
2022-12-08T07:39:41.920Z,7.80
2022-12-08T07:44:43.385Z,5.82
2022-12-08T07:49:44.920Z,2.78
2022-12-08T07:54:47.464Z,3.90
2022-12-08T07:59:48.937Z,7.13
2022-12-08T08:04:51.065Z,8.02
2022-12-08T08:09:52.781Z,7.07
2022-12-08T08:14:54.242Z,6.25
2022-12-08T08:19:55.801Z,5.95
2022-12-08T08:24:57.308Z,7.05
2022-12-08T08:29:58.833Z,6.22
2022-12-08T08:35:01.532Z,11.48
2022-12-08T08:40:04.378Z,4.78
2022-12-08T08:45:06.447Z,5.20
2022-12-08T08:50:08.384Z,8.35
2022-12-08T08:55:10.216Z,7.22
2022-12-08T09:00:12.468Z,8.68
2022-12-08T09:05:13.996Z,8.98
2022-12-08T09:10:15.540Z,11.55
2022-12-08T09:15:17.454Z,6.38
2022-12-08T09:20:19.015Z,9.68
2022-12-08T09:25:20.553Z,7.13
2022-12-08T09:30:22.099Z,9.05
2022-12-08T09:35:23.535Z,7.70
2022-12-08T09:40:26.227Z,9.75
2022-12-08T09:45:33.373Z,8.20
2022-12-08T09:50:49.861Z,8.50
2022-12-08T09:55:58.804Z,9.02
2022-12-08T10:01:00.437Z,6.90
2022-12-08T10:06:08.212Z,3.70
2022-12-08T10:11:19.552Z,7.65
2022-12-08T10:16:29.841Z,9.13
2022-12-08T10:21:32.601Z,8.98
2022-12-08T10:26:34.107Z,7.57
2022-12-08T10:31:35.662Z,8.55
2022-12-08T10:36:58.653Z,9.18
2022-12-08T10:42:01.979Z,7.63
2022-12-08T10:47:12.398Z,3.75
2022-12-08T10:52:24.277Z,8.93
2022-12-08T10:57:25.793Z,4.95
2022-12-08T11:02:27.385Z,8.27
2022-12-08T11:07:29.424Z,6.43
2022-12-08T11:12:31.465Z,9.48
2022-12-08T11:17:41.209Z,6.10
2022-12-08T11:22:51.961Z,10.60
2022-12-08T11:28:01.254Z,7.22
2022-12-08T11:33:19.426Z,4.75
2022-12-08T11:43:33.311Z,8.82
2022-12-08T11:49:06.733Z,6.82
2022-12-08T11:54:21.568Z,7.13
2022-12-08T11:59:29.682Z,12.15
2022-12-08T12:04:39.678Z,13.93
2022-12-08T12:10:02.790Z,9.38
2022-12-08T12:15:16.305Z,11.10
2022-12-08T12:20:28.370Z,7.78
2022-12-08T12:25:29.966Z,5.38
2022-12-08T12:31:00.987Z,4.10
2022-12-08T12:36:06.789Z,2.92
2022-12-08T12:41:10.097Z,6.95
2022-12-08T12:46:23.715Z,5.72
2022-12-08T12:51:47.649Z,1.95
2022-12-08T12:56:55.481Z,4.32
2022-12-08T13:06:59.736Z,3.75
2022-12-08T13:12:09.841Z,5.10
2022-12-08T13:17:15.495Z,7.32
2022-12-08T13:23:07.920Z,4.15
2022-12-08T13:28:30.551Z,2.08
2022-12-08T13:33:41.229Z,6.72
2022-12-08T13:38:45.676Z,3.88
2022-12-08T13:51:45.352Z,7.18
2022-12-08T13:56:05.487Z,4.95
2022-12-08T14:00:19.867Z,5.10
2022-12-08T14:05:35.151Z,6.10
2022-12-08T14:10:42.615Z,5.63
2022-12-08T14:15:44.255Z,4.80
2022-12-08T14:21:20.374Z,2.75
2022-12-08T14:26:20.935Z,5.75
2022-12-08T14:31:22.784Z,3.88
2022-12-08T14:36:24.708Z,5.88
2022-12-08T14:41:32.475Z,4.70
2022-12-08T14:46:34.187Z,7.45
2022-12-08T14:51:36.884Z,9.57
2022-12-08T14:56:47.556Z,15.40
2022-12-08T15:01:52.031Z,19.42
2022-12-08T15:07:00.865Z,16.70
2022-12-08T15:12:12.340Z,9.38
2022-12-08T15:17:44.890Z,6.18
2022-12-08T15:22:46.404Z,4.28
2022-12-08T15:27:50.798Z,7.40
2022-12-08T15:32:54.191Z,6.60
2022-12-08T15:37:55.830Z,12.27
2022-12-08T15:42:57.333Z,9.77
2022-12-08T15:47:58.800Z,7.88
2022-12-08T15:53:01.147Z,9.52
2022-12-08T15:58:52.366Z,8.20
2022-12-08T16:08:56.141Z,13.50
2022-12-08T16:14:36.848Z,7.65
2022-12-08T16:19:29.127Z,6.60
2022-12-08T16:24:30.727Z,8.68
2022-12-08T16:29:32.277Z,7.10
2022-12-08T16:34:33.794Z,7.50
2022-12-08T16:39:39.895Z,8.90
2022-12-08T16:44:45.614Z,7.07
2022-12-08T16:49:47.076Z,14.70
2022-12-08T16:54:48.754Z,10.20
2022-12-08T16:59:50.283Z,12.38
2022-12-08T17:04:51.861Z,13.57
2022-12-08T17:09:53.422Z,33.22
2022-12-08T17:14:54.940Z,20.55
2022-12-08T17:19:56.409Z,18.95
2022-12-08T17:24:58.198Z,19.25
2022-12-08T17:30:00.886Z,20.00
2022-12-08T17:35:02.676Z,24.40
2022-12-08T17:40:05.417Z,17.23
2022-12-08T17:45:08.495Z,19.40
2022-12-08T17:50:10.528Z,27.95
2022-12-08T17:55:12.173Z,36.85
2022-12-08T18:00:14.152Z,21.75
2022-12-08T18:05:15.684Z,30.20
2022-12-08T18:10:17.912Z,26.92
2022-12-08T18:15:20.708Z,25.65
2022-12-08T18:20:22.285Z,23.73
2022-12-08T18:25:23.866Z,27.95
2022-12-08T18:30:25.361Z,33.28
2022-12-08T18:35:28.687Z,30.02
2022-12-08T18:40:30.476Z,49.22
2022-12-08T18:45:32.218Z,24.77
2022-12-08T18:50:33.776Z,25.20
2022-12-08T18:55:37.406Z,31.50
2022-12-08T19:00:38.934Z,39.80
2022-12-08T19:05:40.450Z,81.00
2022-12-08T19:10:42.108Z,30.50
2022-12-08T19:15:43.649Z,30.10
2022-12-08T19:20:45.552Z,30.00
2022-12-08T19:25:47.146Z,246.32
2022-12-08T19:30:48.746Z,186.52
2022-12-08T19:35:52.622Z,37.15
2022-12-08T19:41:12.976Z,28.25
2022-12-08T19:46:14.615Z,34.67
2022-12-08T19:51:16.260Z,47.00
2022-12-08T19:56:17.966Z,29.98
2022-12-08T20:01:19.540Z,29.63
2022-12-08T20:06:23.282Z,29.77
2022-12-08T20:11:24.833Z,29.33
2022-12-08T20:16:26.434Z,66.97
2022-12-08T20:21:28.394Z,37.58
2022-12-08T20:26:29.942Z,32.53
2022-12-08T20:31:33.281Z,70.90
2022-12-08T20:36:35.092Z,40.25
2022-12-08T20:41:39.258Z,40.10
2022-12-08T20:46:44.979Z,30.85
2022-12-08T20:51:49.919Z,29.25
2022-12-08T20:56:51.616Z,26.85
2022-12-08T21:01:53.965Z,34.30
2022-12-08T21:06:56.048Z,34.47
2022-12-08T21:11:57.550Z,35.60
2022-12-08T21:16:59.436Z,30.88
2022-12-08T21:22:01.255Z,36.72
2022-12-08T21:27:02.916Z,30.85
2022-12-08T21:32:04.669Z,38.85
2022-12-08T21:37:06.244Z,39.00
2022-12-08T21:42:34.615Z,42.35
2022-12-08T21:47:36.616Z,43.95
2022-12-08T21:52:44.708Z,44.30
2022-12-08T21:57:46.397Z,43.63
2022-12-08T22:02:47.977Z,41.90
2022-12-08T22:07:50.095Z,47.65
2022-12-08T22:12:51.986Z,50.70
2022-12-08T22:17:53.529Z,53.78
2022-12-08T22:22:55.282Z,48.80
2022-12-08T22:27:57.032Z,49.65
2022-12-08T22:32:58.584Z,49.45
2022-12-08T22:38:00.047Z,47.55
2022-12-08T22:43:01.689Z,47.63
2022-12-08T22:48:03.256Z,37.50
2022-12-08T22:53:05.380Z,36.20
2022-12-08T22:58:06.840Z,35.50
2022-12-08T23:03:08.616Z,34.40
2022-12-08T23:08:14.597Z,32.85
2022-12-08T23:13:16.288Z,33.15
2022-12-08T23:18:21.591Z,31.38
2022-12-08T23:23:23.171Z,33.47
2022-12-08T23:28:24.885Z,33.55
2022-12-08T23:33:26.420Z,33.85
2022-12-08T23:38:28.152Z,34.58
2022-12-08T23:43:29.951Z,33.22
2022-12-08T23:48:34.628Z,33.55
2022-12-08T23:53:37.292Z,35.25
2022-12-08T23:58:39.130Z,38.53
